createdAt,value
2022-11-04T00:01:40.516Z,11.00
2022-11-04T00:04:09.325Z,11.10
2022-11-04T00:06:37.950Z,10.70
2022-11-04T00:09:09.017Z,11.00
2022-11-04T00:11:54.687Z,12.00
2022-11-04T00:14:23.309Z,11.90
2022-11-04T00:17:08.990Z,11.60
2022-11-04T00:19:50.812Z,11.40
2022-11-04T00:22:36.140Z,10.90
2022-11-04T00:25:24.446Z,11.40
2022-11-04T00:28:10.348Z,10.80
2022-11-04T00:30:38.627Z,10.60
2022-11-04T00:33:23.849Z,10.70
2022-11-04T00:35:52.131Z,10.60
2022-11-04T00:38:20.147Z,10.10
2022-11-04T00:40:49.531Z,10.60
2022-11-04T00:45:46.025Z,10.50
2022-11-04T00:48:13.964Z,10.70
2022-11-04T00:50:42.930Z,10.70
2022-11-04T00:55:39.552Z,10.70
2022-11-04T00:58:09.000Z,11.50
2022-11-04T01:00:37.001Z,10.80
2022-11-04T01:03:05.118Z,10.70
2022-11-04T01:05:33.309Z,10.70
2022-11-04T01:08:01.281Z,11.10
2022-11-04T01:10:29.280Z,10.70
2022-11-04T01:12:57.243Z,10.70
2022-11-04T01:17:55.054Z,10.60
2022-11-04T01:20:22.997Z,10.50
2022-11-04T01:22:50.969Z,11.90
2022-11-04T01:25:18.931Z,11.30
2022-11-04T01:27:46.886Z,10.90
2022-11-04T01:30:15.271Z,11.80
2022-11-04T01:32:44.628Z,10.70
2022-11-04T01:37:40.888Z,10.70
2022-11-04T01:40:10.171Z,10.70
2022-11-04T01:42:38.145Z,10.80
2022-11-04T01:45:11.053Z,10.60
2022-11-04T01:47:42.759Z,10.70
2022-11-04T01:50:15.129Z,11.40
2022-11-04T01:52:46.711Z,10.70
2022-11-04T01:55:19.067Z,10.50
2022-11-04T01:57:50.128Z,10.90
2022-11-04T02:00:18.989Z,10.50
2022-11-04T02:03:00.325Z,10.70
2022-11-04T02:05:31.461Z,11.30
2022-11-04T02:08:01.210Z,10.40
2022-11-04T02:10:31.920Z,10.30
2022-11-04T02:13:01.283Z,11.00
2022-11-04T02:15:38.408Z,10.70
2022-11-04T02:18:16.691Z,10.20
2022-11-04T02:21:05.524Z,10.20
2022-11-04T02:23:59.373Z,10.20
2022-11-04T02:26:58.230Z,10.30
2022-11-04T02:29:47.776Z,10.30
2022-11-04T02:32:25.593Z,10.20
2022-11-04T02:35:01.171Z,10.50
2022-11-04T02:37:36.894Z,10.90
2022-11-04T02:40:17.666Z,10.60
2022-11-04T02:42:54.643Z,10.10
2022-11-04T02:45:30.648Z,10.70
2022-11-04T02:48:04.075Z,9.90
2022-11-04T02:50:38.473Z,10.70
2022-11-04T02:53:13.344Z,10.30
2022-11-04T02:55:45.776Z,9.80
2022-11-04T02:58:19.476Z,9.80
2022-11-04T03:00:50.910Z,10.70
2022-11-04T03:51:12.959Z,9.40
2022-11-04T03:59:04.665Z,9.20
2022-11-04T04:01:43.515Z,10.30
2022-11-04T04:06:46.420Z,9.20
2022-11-04T04:14:37.928Z,9.10
2022-11-04T04:17:11.699Z,9.10
2022-11-04T04:37:50.228Z,8.40
2022-11-04T04:40:39.790Z,8.50
2022-11-04T04:43:27.784Z,8.50
2022-11-04T04:45:57.983Z,9.10
2022-11-04T04:48:27.317Z,8.50
2022-11-04T04:51:02.036Z,8.50
2022-11-04T04:55:58.211Z,8.60
2022-11-04T04:58:26.177Z,8.60
2022-11-04T05:00:54.207Z,8.60
2022-11-04T05:05:53.749Z,8.60
2022-11-04T05:08:24.259Z,8.60
2022-11-04T05:10:52.180Z,8.60
2022-11-04T05:15:59.000Z,8.40
2022-11-04T05:18:26.940Z,8.20
2022-11-04T05:20:56.241Z,8.00
2022-11-04T05:25:52.497Z,8.00
2022-11-04T05:28:20.430Z,8.20
2022-11-04T05:30:48.370Z,8.00
2022-11-04T05:35:44.569Z,8.10
2022-11-04T05:38:13.924Z,8.20
2022-11-04T05:40:41.858Z,8.30
2022-11-04T05:43:09.997Z,8.10
2022-11-04T05:45:38.228Z,8.00
2022-11-04T05:48:07.109Z,8.20
2022-11-04T05:50:35.243Z,8.10
2022-11-04T05:53:03.195Z,8.10
2022-11-04T05:55:32.509Z,8.10
2022-11-04T05:58:00.520Z,8.10
2022-11-04T06:00:29.365Z,8.10
2022-11-04T06:02:58.263Z,7.30
2022-11-04T06:05:26.945Z,8.00
2022-11-04T06:07:55.034Z,7.90
2022-11-04T06:10:23.115Z,8.00
2022-11-04T06:12:52.396Z,8.00
2022-11-04T06:15:20.373Z,8.00
2022-11-04T06:17:48.300Z,7.90
2022-11-04T06:20:16.472Z,7.90
2022-11-04T06:22:44.411Z,7.90
2022-11-04T06:25:12.891Z,7.20
2022-11-04T06:27:41.278Z,7.80
2022-11-04T06:30:14.206Z,7.80
2022-11-04T06:32:42.219Z,7.80
2022-11-04T06:35:10.532Z,7.80
2022-11-04T06:37:38.923Z,7.80
2022-11-04T06:40:08.304Z,8.40
2022-11-04T06:45:05.132Z,7.90
2022-11-04T06:47:34.414Z,8.00
2022-11-04T06:50:02.648Z,7.90
2022-11-04T06:52:30.662Z,7.90
2022-11-04T06:54:58.665Z,7.80
2022-11-04T06:57:26.628Z,8.00
2022-11-04T06:59:54.668Z,8.10
2022-11-04T07:04:55.020Z,7.50
2022-11-04T07:07:22.998Z,7.50
2022-11-04T07:09:50.928Z,7.40
2022-11-04T07:12:18.893Z,7.50
2022-11-04T07:14:46.875Z,7.50
2022-11-04T07:17:14.827Z,7.50
2022-11-04T07:19:42.820Z,8.20
2022-11-04T07:22:12.143Z,7.30
2022-11-04T07:24:40.064Z,7.50
2022-11-04T07:29:37.168Z,7.60
2022-11-04T07:32:05.489Z,7.50
2022-11-04T07:34:33.465Z,7.50
2022-11-04T07:37:01.412Z,7.50
2022-11-04T07:39:30.743Z,7.40
2022-11-04T07:41:59.780Z,7.30
2022-11-04T07:44:28.040Z,7.70
2022-11-04T07:46:56.400Z,7.80
2022-11-04T07:49:25.336Z,8.20
2022-11-04T07:51:53.577Z,8.10
2022-11-04T07:54:21.536Z,8.20
2022-11-04T07:56:50.866Z,8.30
2022-11-04T07:59:18.820Z,8.40
2022-11-04T08:01:46.877Z,8.40
2022-11-04T08:04:14.900Z,7.70
2022-11-04T08:06:42.860Z,9.40
2022-11-04T08:09:10.909Z,8.40
2022-11-04T08:11:38.875Z,8.50
2022-11-04T08:14:08.224Z,8.70
2022-11-04T08:16:36.154Z,8.80
2022-11-04T08:19:04.191Z,9.40
2022-11-04T08:21:33.862Z,9.00
2022-11-04T08:24:03.869Z,9.10
2022-11-04T08:26:31.821Z,9.20
2022-11-04T08:29:01.374Z,10.60
2022-11-04T08:31:32.684Z,9.30
2022-11-04T08:34:01.094Z,9.80
2022-11-04T08:36:31.640Z,9.40
2022-11-04T08:39:01.406Z,9.50
2022-11-04T08:41:32.741Z,9.90
2022-11-04T08:44:01.160Z,9.80
2022-11-04T08:46:33.302Z,9.90
2022-11-04T08:49:04.550Z,10.00
2022-11-04T09:29:14.020Z,11.20
2022-11-04T09:31:43.208Z,11.00
2022-11-04T09:34:12.544Z,11.30
2022-11-04T09:36:40.570Z,11.20
2022-11-04T09:39:08.515Z,11.20
2022-11-04T09:41:58.528Z,11.30
2022-11-04T09:44:29.839Z,11.50
2022-11-04T09:47:01.890Z,12.50
2022-11-04T09:49:36.452Z,11.60
2022-11-04T09:52:08.644Z,12.50
2022-11-04T09:54:46.995Z,11.80
2022-11-04T09:57:19.033Z,12.60
2022-11-04T09:59:49.843Z,12.30
2022-11-04T10:02:43.047Z,12.10
2022-11-04T11:04:29.132Z,12.20
2022-11-04T12:23:02.537Z,12.30
2022-11-04T16:03:24.317Z,10.30
2022-11-04T16:06:03.870Z,10.70
2022-11-04T16:08:33.756Z,11.20
2022-11-04T16:11:16.058Z,9.80
2022-11-04T16:13:44.756Z,9.50
2022-11-04T16:16:30.708Z,10.00
2022-11-04T16:18:59.756Z,9.80
2022-11-04T16:21:30.536Z,9.90
2022-11-04T16:24:01.989Z,9.20
2022-11-04T16:26:34.889Z,9.60
2022-11-04T16:29:02.922Z,9.80
2022-11-04T16:31:35.502Z,9.50
2022-11-04T16:34:04.094Z,8.90
2022-11-04T16:36:35.611Z,8.90
2022-11-04T16:39:08.472Z,9.60
2022-11-04T16:41:39.721Z,10.20
2022-11-04T16:44:18.515Z,9.30
2022-11-04T16:46:46.538Z,10.00
2022-11-04T16:49:16.472Z,9.40
2022-11-04T16:51:44.451Z,9.50
2022-11-04T16:54:12.693Z,8.80
2022-11-04T16:56:42.025Z,9.40
2022-11-04T16:59:11.784Z,9.10
2022-11-04T17:01:40.572Z,9.80
2022-11-04T17:04:08.773Z,9.10
2022-11-04T17:06:37.601Z,9.30
2022-11-04T17:09:07.844Z,9.50
2022-11-04T17:11:35.817Z,10.30
2022-11-04T17:14:05.143Z,9.40
2022-11-04T17:16:33.087Z,9.80
2022-11-04T17:19:00.997Z,9.90
2022-11-04T17:21:28.960Z,10.80
2022-11-04T17:23:57.327Z,9.10
2022-11-04T17:26:25.257Z,9.10
2022-11-04T17:28:53.149Z,9.70
2022-11-04T17:31:22.591Z,9.60
2022-11-04T17:33:50.535Z,9.50
2022-11-04T17:36:20.247Z,10.50
2022-11-04T17:38:49.258Z,10.90
2022-11-04T17:41:34.935Z,10.80
2022-11-04T17:44:02.986Z,9.40
2022-11-04T17:46:41.754Z,9.80
2022-11-04T17:49:13.972Z,9.80
2022-11-04T17:51:43.780Z,10.00
2022-11-04T17:54:12.266Z,9.20
2022-11-04T17:56:40.816Z,9.90
2022-11-04T17:59:09.740Z,10.00
2022-11-04T18:01:39.853Z,9.60
2022-11-04T18:04:08.173Z,9.30
2022-11-04T18:06:39.412Z,9.60
2022-11-04T18:09:09.718Z,10.40
2022-11-04T18:11:55.907Z,9.70
2022-11-04T18:14:24.342Z,9.40
2022-11-04T18:16:53.985Z,10.00
2022-11-04T18:19:23.947Z,9.80
2022-11-04T18:21:52.029Z,9.60
2022-11-04T18:24:20.455Z,9.40
2022-11-04T18:26:48.536Z,10.00
2022-11-04T18:29:17.324Z,10.00
2022-11-04T18:31:49.425Z,9.90
2022-11-04T18:34:19.953Z,9.50
2022-11-04T18:36:48.832Z,10.40
2022-11-04T18:39:18.647Z,9.80
2022-11-04T18:41:46.981Z,10.50
2022-11-04T18:44:17.171Z,9.40
2022-11-04T18:46:45.679Z,9.80
2022-11-04T18:49:14.604Z,10.30
2022-11-04T18:51:45.205Z,10.30
2022-11-04T18:54:14.729Z,9.00
2022-11-04T18:56:43.821Z,9.50
2022-11-04T18:59:12.850Z,9.60
2022-11-04T19:01:41.499Z,9.60
2022-11-04T19:04:09.941Z,9.00
2022-11-04T19:06:42.515Z,9.40
2022-11-04T19:09:44.728Z,10.20
2022-11-04T19:12:18.930Z,10.50
2022-11-04T19:14:46.871Z,9.30
2022-11-04T19:17:14.932Z,9.70
2022-11-04T19:19:43.527Z,9.70
2022-11-04T19:22:11.703Z,9.90
2022-11-04T19:24:41.182Z,9.20
2022-11-04T19:27:09.132Z,9.60
2022-11-04T19:29:37.086Z,9.30
2022-11-04T19:32:09.606Z,10.60
2022-11-04T19:34:41.048Z,9.30
2022-11-04T19:37:09.281Z,9.70
2022-11-04T19:39:37.559Z,9.40
2022-11-04T19:42:24.772Z,10.20
2022-11-04T19:44:52.740Z,9.00
2022-11-04T19:47:20.694Z,9.50
2022-11-04T19:49:48.741Z,9.90
2022-11-04T19:52:16.796Z,9.50
2022-11-04T19:54:44.742Z,9.20
2022-11-04T19:57:14.057Z,8.40
2022-11-04T19:59:41.995Z,9.70
2022-11-04T20:02:11.112Z,9.80
2022-11-04T20:04:39.228Z,9.40
2022-11-04T20:07:07.270Z,9.50
2022-11-04T20:09:35.227Z,10.20
2022-11-04T20:12:20.572Z,9.80
2022-11-04T20:14:49.863Z,10.20
2022-11-04T20:17:17.856Z,10.00
2022-11-04T20:19:45.795Z,10.80
2022-11-04T20:22:13.775Z,9.50
2022-11-04T20:24:41.682Z,9.60
2022-11-04T20:27:14.989Z,10.20
2022-11-04T20:29:43.172Z,10.20
2022-11-04T20:32:12.637Z,9.70
2022-11-04T20:34:40.766Z,9.70
2022-11-04T20:37:09.594Z,10.30
2022-11-04T20:39:37.611Z,10.50
2022-11-04T20:42:05.802Z,9.60
2022-11-04T20:44:34.200Z,9.50
2022-11-04T20:47:02.288Z,9.60
2022-11-04T20:49:31.719Z,10.00
2022-11-04T20:51:59.711Z,10.50
2022-11-04T20:54:27.781Z,9.70
2022-11-04T20:56:55.771Z,10.30
2022-11-04T20:59:23.734Z,10.00
2022-11-04T21:01:52.180Z,10.40
2022-11-04T21:04:21.876Z,9.60
2022-11-04T21:06:52.450Z,9.70
2022-11-04T21:09:22.549Z,9.70
2022-11-04T21:11:51.295Z,9.60
2022-11-04T21:14:20.245Z,9.50
2022-11-04T21:16:48.838Z,9.60
2022-11-04T21:19:17.130Z,10.50
2022-11-04T21:21:46.921Z,9.50
2022-11-04T21:24:17.589Z,9.50
2022-11-04T21:26:46.607Z,9.90
2022-11-04T21:29:16.887Z,9.50
2022-11-04T21:31:45.752Z,10.10
2022-11-04T21:34:13.932Z,9.40
2022-11-04T21:36:42.313Z,10.50
2022-11-04T21:39:13.889Z,9.30
2022-11-04T21:41:43.265Z,9.70
2022-11-04T21:44:14.071Z,9.40
2022-11-04T21:46:42.442Z,10.40
2022-11-04T21:49:14.825Z,10.10
2022-11-04T21:51:42.762Z,8.60
2022-11-04T21:54:12.124Z,9.30
2022-11-04T21:56:40.197Z,9.70
2022-11-04T21:59:16.936Z,9.70
2022-11-04T22:01:46.567Z,10.00
2022-11-04T22:04:14.611Z,10.10
2022-11-04T22:06:43.628Z,9.80
2022-11-04T22:09:12.679Z,10.10
2022-11-04T22:11:40.712Z,9.90
2022-11-04T22:14:12.689Z,9.50
2022-11-04T22:16:41.012Z,10.70
2022-11-04T22:19:13.460Z,10.20
2022-11-04T22:21:43.456Z,10.70
2022-11-04T22:24:12.552Z,9.50
2022-11-04T22:26:41.129Z,10.30
2022-11-04T22:29:11.438Z,10.20
2022-11-04T22:31:42.666Z,10.40
2022-11-04T22:34:10.734Z,9.40
2022-11-04T22:36:39.633Z,9.30
2022-11-04T22:39:11.885Z,9.70
2022-11-04T22:41:41.604Z,9.80
2022-11-04T22:44:10.896Z,9.20
2022-11-04T22:46:39.577Z,9.70
2022-11-04T22:49:08.443Z,9.50
2022-11-04T22:51:36.447Z,9.90
2022-11-04T22:54:08.315Z,9.00
2022-11-04T22:56:37.144Z,9.00
2022-11-04T22:59:05.251Z,9.40
2022-11-04T23:01:34.769Z,10.10
2022-11-04T23:04:02.984Z,8.90
2022-11-04T23:06:31.124Z,9.20
2022-11-04T23:09:00.656Z,9.20
2022-11-04T23:11:48.099Z,9.20
2022-11-04T23:14:36.228Z,8.90
2022-11-04T23:17:32.403Z,9.80
2022-11-04T23:20:00.610Z,9.20
2022-11-04T23:22:46.200Z,9.20
2022-11-04T23:25:14.296Z,9.00
2022-11-04T23:28:02.653Z,9.40
2022-11-04T23:30:33.446Z,9.40
2022-11-04T23:33:04.427Z,9.60
2022-11-04T23:35:51.335Z,9.10
2022-11-04T23:38:20.092Z,10.20
2022-11-04T23:41:03.094Z,9.80
2022-11-04T23:43:31.105Z,8.90
2022-11-04T23:46:16.468Z,9.30
2022-11-04T23:49:03.049Z,9.70
2022-11-04T23:51:49.331Z,9.00
2022-11-04T23:54:34.843Z,8.50
2022-11-04T23:57:20.326Z,9.50
